sensor_id;sensor_type;location;lat;lon;timestamp;P1;durP1;ratioP1;P2;durP2;ratioP2
50575;SDS011;76633;45.642;12.198;2024-03-02T00:00:18;15.25;;;6.75;;
50575;SDS011;76633;45.642;12.198;2024-03-02T00:02:46;16.42;;;6.10;;
50575;SDS011;76633;45.642;12.198;2024-03-02T00:05:14;19.40;;;9.05;;
50575;SDS011;76633;45.642;12.198;2024-03-02T00:07:41;35.00;;;21.45;;
50575;SDS011;76633;45.642;12.198;2024-03-02T00:10:11;17.00;;;8.60;;
50575;SDS011;76633;45.642;12.198;2024-03-02T00:12:44;15.88;;;5.60;;
50575;SDS011;76633;45.642;12.198;2024-03-02T00:18:10;16.65;;;5.75;;
50575;SDS011;76633;45.642;12.198;2024-03-02T00:20:37;10.90;;;5.90;;
50575;SDS011;76633;45.642;12.198;2024-03-02T00:23:04;14.45;;;5.65;;
50575;SDS011;76633;45.642;12.198;2024-03-02T00:25:36;11.48;;;5.75;;
50575;SDS011;76633;45.642;12.198;2024-03-02T00:28:05;12.73;;;5.80;;
50575;SDS011;76633;45.642;12.198;2024-03-02T00:33:17;19.67;;;6.43;;
50575;SDS011;76633;45.642;12.198;2024-03-02T00:35:44;15.82;;;6.35;;
50575;SDS011;76633;45.642;12.198;2024-03-02T00:38:10;14.48;;;5.80;;
50575;SDS011;76633;45.642;12.198;2024-03-02T00:40:35;10.93;;;5.63;;
50575;SDS011;76633;45.642;12.198;2024-03-02T00:43:01;12.45;;;5.88;;
50575;SDS011;76633;45.642;12.198;2024-03-02T00:45:28;15.93;;;5.93;;
50575;SDS011;76633;45.642;12.198;2024-03-02T00:47:54;10.95;;;5.82;;
50575;SDS011;76633;45.642;12.198;2024-03-02T00:50:20;12.23;;;5.78;;
50575;SDS011;76633;45.642;12.198;2024-03-02T00:52:46;15.45;;;5.43;;
50575;SDS011;76633;45.642;12.198;2024-03-02T00:55:15;11.15;;;4.85;;
50575;SDS011;76633;45.642;12.198;2024-03-02T00:57:41;10.70;;;4.88;;
50575;SDS011;76633;45.642;12.198;2024-03-02T01:00:08;13.00;;;4.90;;
50575;SDS011;76633;45.642;12.198;2024-03-02T01:02:37;10.95;;;5.78;;
50575;SDS011;76633;45.642;12.198;2024-03-02T01:05:02;15.65;;;5.32;;
50575;SDS011;76633;45.642;12.198;2024-03-02T01:07:30;10.95;;;4.88;;
50575;SDS011;76633;45.642;12.198;2024-03-02T01:09:55;14.13;;;4.47;;
50575;SDS011;76633;45.642;12.198;2024-03-02T01:12:21;15.73;;;4.80;;
50575;SDS011;76633;45.642;12.198;2024-03-02T01:14:47;17.40;;;4.90;;
50575;SDS011;76633;45.642;12.198;2024-03-02T01:17:13;13.18;;;5.03;;
50575;SDS011;76633;45.642;12.198;2024-03-02T01:19:39;14.48;;;5.55;;
50575;SDS011;76633;45.642;12.198;2024-03-02T01:22:07;12.70;;;4.40;;
50575;SDS011;76633;45.642;12.198;2024-03-02T01:24:32;11.23;;;3.80;;
50575;SDS011;76633;45.642;12.198;2024-03-02T01:26:58;11.48;;;3.85;;
50575;SDS011;76633;45.642;12.198;2024-03-02T01:29:23;9.77;;;3.83;;
50575;SDS011;76633;45.642;12.198;2024-03-02T01:31:49;10.15;;;4.80;;
50575;SDS011;76633;45.642;12.198;2024-03-02T01:34:16;13.35;;;3.75;;
50575;SDS011;76633;45.642;12.198;2024-03-02T01:36:42;10.35;;;3.75;;
50575;SDS011;76633;45.642;12.198;2024-03-02T01:39:07;8.55;;;3.70;;
50575;SDS011;76633;45.642;12.198;2024-03-02T01:41:34;7.60;;;3.60;;
50575;SDS011;76633;45.642;12.198;2024-03-02T01:44:00;9.98;;;4.15;;
50575;SDS011;76633;45.642;12.198;2024-03-02T01:46:26;10.27;;;4.22;;
50575;SDS011;76633;45.642;12.198;2024-03-02T01:48:51;11.88;;;4.18;;
50575;SDS011;76633;45.642;12.198;2024-03-02T01:51:17;12.00;;;3.90;;
50575;SDS011;76633;45.642;12.198;2024-03-02T01:53:43;16.42;;;4.97;;
50575;SDS011;76633;45.642;12.198;2024-03-02T01:56:08;11.27;;;4.60;;
50575;SDS011;76633;45.642;12.198;2024-03-02T01:58:34;11.98;;;3.80;;
50575;SDS011;76633;45.642;12.198;2024-03-02T02:01:01;12.45;;;3.65;;
50575;SDS011;76633;45.642;12.198;2024-03-02T02:03:26;8.07;;;3.63;;
50575;SDS011;76633;45.642;12.198;2024-03-02T02:05:52;10.40;;;3.47;;
50575;SDS011;76633;45.642;12.198;2024-03-02T02:08:18;12.35;;;3.65;;
50575;SDS011;76633;45.642;12.198;2024-03-02T02:10:44;11.68;;;3.70;;
50575;SDS011;76633;45.642;12.198;2024-03-02T02:13:09;11.35;;;3.20;;
50575;SDS011;76633;45.642;12.198;2024-03-02T02:15:35;14.77;;;6.70;;
50575;SDS011;76633;45.642;12.198;2024-03-02T02:18:01;10.88;;;5.32;;
50575;SDS011;76633;45.642;12.198;2024-03-02T02:20:28;13.63;;;5.30;;
50575;SDS011;76633;45.642;12.198;2024-03-02T02:25:23;11.50;;;3.17;;
50575;SDS011;76633;45.642;12.198;2024-03-02T02:27:49;9.23;;;3.10;;
50575;SDS011;76633;45.642;12.198;2024-03-02T02:30:18;9.55;;;3.17;;
50575;SDS011;76633;45.642;12.198;2024-03-02T02:32:50;10.27;;;3.03;;
50575;SDS011;76633;45.642;12.198;2024-03-02T02:35:15;10.52;;;2.75;;
50575;SDS011;76633;45.642;12.198;2024-03-02T02:37:41;11.13;;;3.10;;
50575;SDS011;76633;45.642;12.198;2024-03-02T02:40:08;9.07;;;3.17;;
50575;SDS011;76633;45.642;12.198;2024-03-02T02:42:34;9.98;;;3.38;;
50575;SDS011;76633;45.642;12.198;2024-03-02T02:45:00;10.70;;;2.90;;
50575;SDS011;76633;45.642;12.198;2024-03-02T02:47:25;7.45;;;2.95;;
50575;SDS011;76633;45.642;12.198;2024-03-02T02:49:51;11.38;;;3.00;;
50575;SDS011;76633;45.642;12.198;2024-03-02T02:52:17;9.32;;;3.28;;
50575;SDS011;76633;45.642;12.198;2024-03-02T02:54:43;11.20;;;3.00;;
50575;SDS011;76633;45.642;12.198;2024-03-02T02:57:09;9.35;;;3.00;;
50575;SDS011;76633;45.642;12.198;2024-03-02T02:59:35;11.38;;;3.30;;
50575;SDS011;76633;45.642;12.198;2024-03-02T03:02:01;10.88;;;3.17;;
50575;SDS011;76633;45.642;12.198;2024-03-02T03:04:27;10.80;;;3.53;;
50575;SDS011;76633;45.642;12.198;2024-03-02T03:06:53;12.73;;;3.50;;
50575;SDS011;76633;45.642;12.198;2024-03-02T03:09:18;10.32;;;3.33;;
50575;SDS011;76633;45.642;12.198;2024-03-02T03:11:44;12.13;;;3.67;;
50575;SDS011;76633;45.642;12.198;2024-03-02T03:14:10;13.93;;;3.45;;
50575;SDS011;76633;45.642;12.198;2024-03-02T03:16:35;8.50;;;2.78;;
50575;SDS011;76633;45.642;12.198;2024-03-02T03:19:01;12.20;;;3.25;;
50575;SDS011;76633;45.642;12.198;2024-03-02T03:21:27;8.82;;;3.80;;
50575;SDS011;76633;45.642;12.198;2024-03-02T03:23:52;10.40;;;3.25;;
50575;SDS011;76633;45.642;12.198;2024-03-02T03:26:18;8.35;;;3.00;;
50575;SDS011;76633;45.642;12.198;2024-03-02T03:28:44;9.98;;;3.40;;
50575;SDS011;76633;45.642;12.198;2024-03-02T03:31:09;11.48;;;3.92;;
50575;SDS011;76633;45.642;12.198;2024-03-02T03:33:35;7.97;;;4.63;;
50575;SDS011;76633;45.642;12.198;2024-03-02T03:36:01;11.35;;;4.20;;
50575;SDS011;76633;45.642;12.198;2024-03-02T03:38:28;8.75;;;4.03;;
50575;SDS011;76633;45.642;12.198;2024-03-02T03:40:54;7.70;;;3.30;;
50575;SDS011;76633;45.642;12.198;2024-03-02T03:43:20;8.82;;;3.40;;
50575;SDS011;76633;45.642;12.198;2024-03-02T03:45:46;10.50;;;3.53;;
50575;SDS011;76633;45.642;12.198;2024-03-02T03:48:11;10.77;;;3.38;;
50575;SDS011;76633;45.642;12.198;2024-03-02T03:50:37;12.10;;;3.50;;
50575;SDS011;76633;45.642;12.198;2024-03-02T03:53:03;12.68;;;3.50;;
50575;SDS011;76633;45.642;12.198;2024-03-02T03:55:29;7.95;;;2.95;;
50575;SDS011;76633;45.642;12.198;2024-03-02T03:57:54;10.10;;;3.20;;
50575;SDS011;76633;45.642;12.198;2024-03-02T04:00:20;9.07;;;3.63;;
50575;SDS011;76633;45.642;12.198;2024-03-02T04:02:46;5.43;;;2.83;;
50575;SDS011;76633;45.642;12.198;2024-03-02T04:05:11;8.25;;;3.00;;
50575;SDS011;76633;45.642;12.198;2024-03-02T04:07:37;7.47;;;3.03;;
50575;SDS011;76633;45.642;12.198;2024-03-02T04:10:08;6.80;;;2.83;;
50575;SDS011;76633;45.642;12.198;2024-03-02T04:12:35;5.63;;;2.80;;
50575;SDS011;76633;45.642;12.198;2024-03-02T04:15:02;7.28;;;3.05;;
50575;SDS011;76633;45.642;12.198;2024-03-02T04:17:32;10.82;;;3.10;;
50575;SDS011;76633;45.642;12.198;2024-03-02T04:19:58;8.90;;;3.10;;
50575;SDS011;76633;45.642;12.198;2024-03-02T04:22:25;9.60;;;3.60;;
50575;SDS011;76633;45.642;12.198;2024-03-02T04:24:52;9.50;;;3.40;;
50575;SDS011;76633;45.642;12.198;2024-03-02T04:27:18;6.95;;;3.15;;
50575;SDS011;76633;45.642;12.198;2024-03-02T04:29:43;6.55;;;3.03;;
50575;SDS011;76633;45.642;12.198;2024-03-02T04:32:09;13.85;;;3.88;;
50575;SDS011;76633;45.642;12.198;2024-03-02T04:34:35;7.18;;;3.13;;
50575;SDS011;76633;45.642;12.198;2024-03-02T04:37:00;6.40;;;3.42;;
50575;SDS011;76633;45.642;12.198;2024-03-02T04:39:26;9.38;;;3.63;;
50575;SDS011;76633;45.642;12.198;2024-03-02T04:41:52;9.25;;;3.35;;
50575;SDS011;76633;45.642;12.198;2024-03-02T04:44:17;6.20;;;3.22;;
50575;SDS011;76633;45.642;12.198;2024-03-02T04:46:43;9.13;;;3.08;;
50575;SDS011;76633;45.642;12.198;2024-03-02T04:49:09;10.43;;;3.22;;
50575;SDS011;76633;45.642;12.198;2024-03-02T04:51:34;6.28;;;3.00;;
50575;SDS011;76633;45.642;12.198;2024-03-02T04:54:00;8.23;;;3.50;;
50575;SDS011;76633;45.642;12.198;2024-03-02T04:56:26;9.63;;;3.47;;
50575;SDS011;76633;45.642;12.198;2024-03-02T04:59:05;13.05;;;3.70;;
50575;SDS011;76633;45.642;12.198;2024-03-02T05:01:31;6.68;;;3.30;;
50575;SDS011;76633;45.642;12.198;2024-03-02T05:03:58;7.20;;;3.13;;
50575;SDS011;76633;45.642;12.198;2024-03-02T05:06:24;7.72;;;3.33;;
50575;SDS011;76633;45.642;12.198;2024-03-02T05:08:49;6.05;;;2.90;;
50575;SDS011;76633;45.642;12.198;2024-03-02T05:11:15;7.43;;;3.65;;
50575;SDS011;76633;45.642;12.198;2024-03-02T05:13:59;6.30;;;3.40;;
50575;SDS011;76633;45.642;12.198;2024-03-02T05:16:25;10.60;;;4.07;;
50575;SDS011;76633;45.642;12.198;2024-03-02T05:18:50;9.52;;;3.92;;
50575;SDS011;76633;45.642;12.198;2024-03-02T05:21:16;11.07;;;3.90;;
50575;SDS011;76633;45.642;12.198;2024-03-02T05:23:42;8.15;;;3.85;;
50575;SDS011;76633;45.642;12.198;2024-03-02T05:26:08;8.43;;;4.55;;
50575;SDS011;76633;45.642;12.198;2024-03-02T05:28:36;8.65;;;3.70;;
50575;SDS011;76633;45.642;12.198;2024-03-02T05:31:02;11.63;;;4.20;;
50575;SDS011;76633;45.642;12.198;2024-03-02T05:33:27;9.98;;;3.88;;
50575;SDS011;76633;45.642;12.198;2024-03-02T05:35:55;8.05;;;4.00;;
50575;SDS011;76633;45.642;12.198;2024-03-02T05:38:20;10.77;;;4.43;;
50575;SDS011;76633;45.642;12.198;2024-03-02T05:40:46;9.88;;;4.53;;
50575;SDS011;76633;45.642;12.198;2024-03-02T05:43:12;10.32;;;4.10;;
50575;SDS011;76633;45.642;12.198;2024-03-02T05:45:38;12.75;;;5.50;;
50575;SDS011;76633;45.642;12.198;2024-03-02T05:48:05;12.15;;;5.30;;
50575;SDS011;76633;45.642;12.198;2024-03-02T05:50:32;8.27;;;5.00;;
50575;SDS011;76633;45.642;12.198;2024-03-02T05:52:58;9.38;;;4.93;;
50575;SDS011;76633;45.642;12.198;2024-03-02T05:55:24;9.38;;;4.65;;
50575;SDS011;76633;45.642;12.198;2024-03-02T05:57:50;10.38;;;5.03;;
50575;SDS011;76633;45.642;12.198;2024-03-02T06:00:48;11.55;;;6.20;;
50575;SDS011;76633;45.642;12.198;2024-03-02T06:03:13;13.50;;;6.25;;
50575;SDS011;76633;45.642;12.198;2024-03-02T06:05:39;9.20;;;5.22;;
50575;SDS011;76633;45.642;12.198;2024-03-02T06:08:05;11.57;;;4.97;;
50575;SDS011;76633;45.642;12.198;2024-03-02T06:10:32;14.13;;;5.00;;
50575;SDS011;76633;45.642;12.198;2024-03-02T06:12:58;10.38;;;5.03;;
50575;SDS011;76633;45.642;12.198;2024-03-02T06:15:24;15.63;;;5.13;;
50575;SDS011;76633;45.642;12.198;2024-03-02T06:17:50;12.82;;;4.68;;
50575;SDS011;76633;45.642;12.198;2024-03-02T06:20:15;11.80;;;5.10;;
50575;SDS011;76633;45.642;12.198;2024-03-02T06:22:41;9.90;;;4.65;;
50575;SDS011;76633;45.642;12.198;2024-03-02T06:25:07;8.40;;;4.57;;
50575;SDS011;76633;45.642;12.198;2024-03-02T06:27:33;10.05;;;4.50;;
50575;SDS011;76633;45.642;12.198;2024-03-02T06:29:58;10.00;;;5.68;;
50575;SDS011;76633;45.642;12.198;2024-03-02T06:32:25;10.40;;;5.20;;
50575;SDS011;76633;45.642;12.198;2024-03-02T06:34:51;8.25;;;4.43;;
50575;SDS011;76633;45.642;12.198;2024-03-02T06:37:16;11.85;;;5.20;;
50575;SDS011;76633;45.642;12.198;2024-03-02T06:39:43;8.20;;;4.93;;
50575;SDS011;76633;45.642;12.198;2024-03-02T06:42:09;10.20;;;4.50;;
50575;SDS011;76633;45.642;12.198;2024-03-02T06:44:34;10.25;;;4.57;;
50575;SDS011;76633;45.642;12.198;2024-03-02T06:47:00;12.55;;;4.80;;
50575;SDS011;76633;45.642;12.198;2024-03-02T06:49:26;10.90;;;4.70;;
50575;SDS011;76633;45.642;12.198;2024-03-02T06:51:51;7.60;;;4.53;;
50575;SDS011;76633;45.642;12.198;2024-03-02T06:54:17;9.50;;;4.60;;
50575;SDS011;76633;45.642;12.198;2024-03-02T06:56:43;9.40;;;4.35;;
50575;SDS011;76633;45.642;12.198;2024-03-02T06:59:08;10.07;;;4.97;;
50575;SDS011;76633;45.642;12.198;2024-03-02T07:01:34;15.45;;;6.68;;
50575;SDS011;76633;45.642;12.198;2024-03-02T07:03:59;10.75;;;5.28;;
50575;SDS011;76633;45.642;12.198;2024-03-02T07:06:25;13.65;;;5.15;;
50575;SDS011;76633;45.642;12.198;2024-03-02T07:08:51;12.77;;;4.70;;
50575;SDS011;76633;45.642;12.198;2024-03-02T07:11:17;10.30;;;4.72;;
50575;SDS011;76633;45.642;12.198;2024-03-02T07:13:42;12.25;;;5.20;;
50575;SDS011;76633;45.642;12.198;2024-03-02T07:16:08;9.02;;;4.72;;
50575;SDS011;76633;45.642;12.198;2024-03-02T07:18:52;8.57;;;5.07;;
50575;SDS011;76633;45.642;12.198;2024-03-02T07:21:18;11.07;;;5.57;;
50575;SDS011;76633;45.642;12.198;2024-03-02T07:23:43;14.45;;;5.32;;
50575;SDS011;76633;45.642;12.198;2024-03-02T07:26:09;11.20;;;5.72;;
50575;SDS011;76633;45.642;12.198;2024-03-02T07:28:35;8.73;;;5.43;;
50575;SDS011;76633;45.642;12.198;2024-03-02T07:31:01;8.95;;;5.00;;
50575;SDS011;76633;45.642;12.198;2024-03-02T07:33:30;8.82;;;6.05;;
50575;SDS011;76633;45.642;12.198;2024-03-02T07:35:56;9.52;;;4.80;;
50575;SDS011;76633;45.642;12.198;2024-03-02T07:38:24;12.63;;;4.80;;
50575;SDS011;76633;45.642;12.198;2024-03-02T07:40:50;11.82;;;4.85;;
50575;SDS011;76633;45.642;12.198;2024-03-02T07:43:16;8.85;;;4.80;;
50575;SDS011;76633;45.642;12.198;2024-03-02T07:45:42;10.60;;;4.72;;
50575;SDS011;76633;45.642;12.198;2024-03-02T07:48:08;11.40;;;5.40;;
50575;SDS011;76633;45.642;12.198;2024-03-02T07:50:34;8.07;;;4.47;;
50575;SDS011;76633;45.642;12.198;2024-03-02T07:53:03;8.95;;;4.75;;
50575;SDS011;76633;45.642;12.198;2024-03-02T07:55:29;10.85;;;4.57;;
50575;SDS011;76633;45.642;12.198;2024-03-02T07:57:55;9.98;;;5.03;;
50575;SDS011;76633;45.642;12.198;2024-03-02T08:00:22;10.45;;;5.43;;
50575;SDS011;76633;45.642;12.198;2024-03-02T08:02:48;10.55;;;5.63;;
50575;SDS011;76633;45.642;12.198;2024-03-02T08:05:15;8.93;;;4.70;;
50575;SDS011;76633;45.642;12.198;2024-03-02T08:07:44;8.05;;;4.60;;
50575;SDS011;76633;45.642;12.198;2024-03-02T08:10:10;10.60;;;5.00;;
50575;SDS011;76633;45.642;12.198;2024-03-02T08:12:36;10.75;;;5.22;;
50575;SDS011;76633;45.642;12.198;2024-03-02T08:15:01;8.77;;;5.22;;
50575;SDS011;76633;45.642;12.198;2024-03-02T08:17:27;6.70;;;4.68;;
50575;SDS011;76633;45.642;12.198;2024-03-02T08:19:53;8.10;;;4.85;;
50575;SDS011;76633;45.642;12.198;2024-03-02T08:22:19;9.23;;;4.68;;
50575;SDS011;76633;45.642;12.198;2024-03-02T08:24:45;7.00;;;4.60;;
50575;SDS011;76633;45.642;12.198;2024-03-02T08:27:11;6.35;;;4.38;;
50575;SDS011;76633;45.642;12.198;2024-03-02T08:29:37;8.75;;;4.88;;
50575;SDS011;76633;45.642;12.198;2024-03-02T08:32:03;9.98;;;4.82;;
50575;SDS011;76633;45.642;12.198;2024-03-02T08:34:30;9.45;;;4.97;;
50575;SDS011;76633;45.642;12.198;2024-03-02T08:36:55;10.40;;;5.00;;
50575;SDS011;76633;45.642;12.198;2024-03-02T08:39:21;8.50;;;4.80;;
50575;SDS011;76633;45.642;12.198;2024-03-02T08:41:47;7.93;;;5.07;;
50575;SDS011;76633;45.642;12.198;2024-03-02T08:44:13;7.32;;;5.07;;
50575;SDS011;76633;45.642;12.198;2024-03-02T08:46:40;9.43;;;5.05;;
50575;SDS011;76633;45.642;12.198;2024-03-02T08:49:06;8.20;;;5.20;;
50575;SDS011;76633;45.642;12.198;2024-03-02T08:51:32;7.78;;;5.25;;
50575;SDS011;76633;45.642;12.198;2024-03-02T08:53:58;8.10;;;5.22;;
50575;SDS011;76633;45.642;12.198;2024-03-02T08:56:24;6.82;;;4.65;;
50575;SDS011;76633;45.642;12.198;2024-03-02T08:58:50;8.18;;;4.57;;
50575;SDS011;76633;45.642;12.198;2024-03-02T09:01:16;6.10;;;4.53;;
50575;SDS011;76633;45.642;12.198;2024-03-02T09:03:43;8.35;;;4.55;;
50575;SDS011;76633;45.642;12.198;2024-03-02T09:06:12;6.80;;;4.00;;
50575;SDS011;76633;45.642;12.198;2024-03-02T09:08:39;8.07;;;4.15;;
50575;SDS011;76633;45.642;12.198;2024-03-02T09:11:07;5.32;;;3.97;;
50575;SDS011;76633;45.642;12.198;2024-03-02T09:13:33;7.63;;;4.63;;
50575;SDS011;76633;45.642;12.198;2024-03-02T09:15:59;7.05;;;4.55;;
50575;SDS011;76633;45.642;12.198;2024-03-02T09:18:25;7.47;;;4.40;;
50575;SDS011;76633;45.642;12.198;2024-03-02T09:20:51;5.05;;;4.35;;
50575;SDS011;76633;45.642;12.198;2024-03-02T09:23:16;9.95;;;5.40;;
50575;SDS011;76633;45.642;12.198;2024-03-02T09:25:42;7.25;;;5.78;;
50575;SDS011;76633;45.642;12.198;2024-03-02T09:28:08;10.32;;;6.15;;
50575;SDS011;76633;45.642;12.198;2024-03-02T09:30:33;7.68;;;5.05;;
50575;SDS011;76633;45.642;12.198;2024-03-02T09:32:59;8.57;;;5.32;;
50575;SDS011;76633;45.642;12.198;2024-03-02T09:35:25;9.18;;;5.00;;
50575;SDS011;76633;45.642;12.198;2024-03-02T09:37:50;8.40;;;6.40;;
50575;SDS011;76633;45.642;12.198;2024-03-02T09:40:16;11.45;;;6.55;;
50575;SDS011;76633;45.642;12.198;2024-03-02T09:42:42;8.82;;;6.75;;
50575;SDS011;76633;45.642;12.198;2024-03-02T09:45:09;9.68;;;6.25;;
50575;SDS011;76633;45.642;12.198;2024-03-02T09:47:35;7.20;;;4.97;;
50575;SDS011;76633;45.642;12.198;2024-03-02T09:50:01;8.30;;;4.82;;
50575;SDS011;76633;45.642;12.198;2024-03-02T09:52:26;5.28;;;4.45;;
50575;SDS011;76633;45.642;12.198;2024-03-02T09:54:52;8.10;;;4.50;;
50575;SDS011;76633;45.642;12.198;2024-03-02T09:57:18;5.32;;;4.50;;
50575;SDS011;76633;45.642;12.198;2024-03-02T09:59:44;14.32;;;8.25;;
50575;SDS011;76633;45.642;12.198;2024-03-02T10:02:10;10.07;;;6.50;;
50575;SDS011;76633;45.642;12.198;2024-03-02T10:04:36;11.23;;;5.40;;
50575;SDS011;76633;45.642;12.198;2024-03-02T10:07:12;11.10;;;5.35;;
50575;SDS011;76633;45.642;12.198;2024-03-02T10:09:39;7.10;;;5.47;;
50575;SDS011;76633;45.642;12.198;2024-03-02T10:12:06;10.90;;;6.13;;
50575;SDS011;76633;45.642;12.198;2024-03-02T10:14:33;7.55;;;5.13;;
50575;SDS011;76633;45.642;12.198;2024-03-02T10:17:03;10.90;;;5.70;;
50575;SDS011;76633;45.642;12.198;2024-03-02T10:19:30;6.68;;;4.93;;
50575;SDS011;76633;45.642;12.198;2024-03-02T10:22:03;6.90;;;4.57;;
50575;SDS011;76633;45.642;12.198;2024-03-02T10:24:43;8.68;;;4.65;;
50575;SDS011;76633;45.642;12.198;2024-03-02T10:27:11;8.38;;;4.95;;
50575;SDS011;76633;45.642;12.198;2024-03-02T10:29:41;8.88;;;5.43;;
50575;SDS011;76633;45.642;12.198;2024-03-02T10:32:10;8.43;;;4.97;;
50575;SDS011;76633;45.642;12.198;2024-03-02T10:34:37;6.38;;;4.03;;
50575;SDS011;76633;45.642;12.198;2024-03-02T10:37:05;4.57;;;3.72;;
50575;SDS011;76633;45.642;12.198;2024-03-02T10:39:32;7.22;;;4.00;;
50575;SDS011;76633;45.642;12.198;2024-03-02T10:42:00;8.70;;;5.30;;
50575;SDS011;76633;45.642;12.198;2024-03-02T10:44:28;7.95;;;4.47;;
50575;SDS011;76633;45.642;12.198;2024-03-02T10:46:55;5.35;;;4.20;;
50575;SDS011;76633;45.642;12.198;2024-03-02T10:49:22;6.00;;;3.75;;
50575;SDS011;76633;45.642;12.198;2024-03-02T10:51:50;7.47;;;4.60;;
50575;SDS011;76633;45.642;12.198;2024-03-02T10:54:16;8.00;;;6.40;;
50575;SDS011;76633;45.642;12.198;2024-03-02T10:56:44;8.85;;;6.07;;
50575;SDS011;76633;45.642;12.198;2024-03-02T10:59:16;9.65;;;8.45;;
50575;SDS011;76633;45.642;12.198;2024-03-02T11:01:53;10.13;;;8.80;;
50575;SDS011;76633;45.642;12.198;2024-03-02T11:04:24;8.57;;;7.00;;
50575;SDS011;76633;45.642;12.198;2024-03-02T11:06:51;8.80;;;7.05;;
50575;SDS011;76633;45.642;12.198;2024-03-02T11:09:21;11.50;;;6.40;;
50575;SDS011;76633;45.642;12.198;2024-03-02T11:12:03;11.75;;;9.02;;
50575;SDS011;76633;45.642;12.198;2024-03-02T11:14:41;12.35;;;7.75;;
50575;SDS011;76633;45.642;12.198;2024-03-02T11:17:10;10.43;;;7.75;;
50575;SDS011;76633;45.642;12.198;2024-03-02T11:19:38;7.90;;;6.50;;
50575;SDS011;76633;45.642;12.198;2024-03-02T11:22:05;7.82;;;6.97;;
50575;SDS011;76633;45.642;12.198;2024-03-02T11:24:32;8.68;;;7.40;;
50575;SDS011;76633;45.642;12.198;2024-03-02T11:26:58;10.30;;;7.22;;
50575;SDS011;76633;45.642;12.198;2024-03-02T11:32:05;10.77;;;6.38;;
50575;SDS011;76633;45.642;12.198;2024-03-02T11:34:39;11.40;;;7.25;;
50575;SDS011;76633;45.642;12.198;2024-03-02T11:37:11;10.75;;;7.07;;
50575;SDS011;76633;45.642;12.198;2024-03-02T11:39:38;12.18;;;7.13;;
50575;SDS011;76633;45.642;12.198;2024-03-02T11:42:07;9.57;;;7.47;;
50575;SDS011;76633;45.642;12.198;2024-03-02T11:44:37;9.55;;;7.15;;
50575;SDS011;76633;45.642;12.198;2024-03-02T11:47:07;11.98;;;6.88;;
50575;SDS011;76633;45.642;12.198;2024-03-02T11:49:36;9.77;;;6.80;;
50575;SDS011;76633;45.642;12.198;2024-03-02T11:52:05;8.55;;;7.65;;
50575;SDS011;76633;45.642;12.198;2024-03-02T11:54:33;7.85;;;6.60;;
50575;SDS011;76633;45.642;12.198;2024-03-02T11:57:03;8.15;;;6.78;;
50575;SDS011;76633;45.642;12.198;2024-03-02T11:59:29;8.93;;;6.65;;
50575;SDS011;76633;45.642;12.198;2024-03-02T12:01:55;9.18;;;6.10;;
50575;SDS011;76633;45.642;12.198;2024-03-02T12:04:24;12.13;;;6.90;;
50575;SDS011;76633;45.642;12.198;2024-03-02T12:07:00;11.27;;;6.47;;
50575;SDS011;76633;45.642;12.198;2024-03-02T12:09:27;6.80;;;5.97;;
50575;SDS011;76633;45.642;12.198;2024-03-02T12:12:05;9.30;;;6.03;;
50575;SDS011;76633;45.642;12.198;2024-03-02T12:14:34;5.88;;;5.13;;
50575;SDS011;76633;45.642;12.198;2024-03-02T12:17:01;7.40;;;6.55;;
50575;SDS011;76633;45.642;12.198;2024-03-02T12:19:28;9.77;;;6.80;;
50575;SDS011;76633;45.642;12.198;2024-03-02T12:21:57;7.07;;;5.32;;
50575;SDS011;76633;45.642;12.198;2024-03-02T12:24:24;8.20;;;4.82;;
50575;SDS011;76633;45.642;12.198;2024-03-02T12:26:52;7.70;;;5.15;;
50575;SDS011;76633;45.642;12.198;2024-03-02T12:29:21;9.52;;;4.90;;
50575;SDS011;76633;45.642;12.198;2024-03-02T12:31:49;7.88;;;5.22;;
50575;SDS011;76633;45.642;12.198;2024-03-02T12:34:16;7.95;;;4.53;;
50575;SDS011;76633;45.642;12.198;2024-03-02T12:36:43;7.88;;;5.95;;
50575;SDS011;76633;45.642;12.198;2024-03-02T12:39:12;7.53;;;5.00;;
50575;SDS011;76633;45.642;12.198;2024-03-02T12:41:38;6.72;;;5.15;;
50575;SDS011;76633;45.642;12.198;2024-03-02T12:44:05;8.38;;;5.75;;
50575;SDS011;76633;45.642;12.198;2024-03-02T12:46:31;8.95;;;5.80;;
50575;SDS011;76633;45.642;12.198;2024-03-02T12:49:21;8.55;;;5.63;;
50575;SDS011;76633;45.642;12.198;2024-03-02T12:51:47;7.85;;;5.57;;
50575;SDS011;76633;45.642;12.198;2024-03-02T12:54:17;6.15;;;5.45;;
50575;SDS011;76633;45.642;12.198;2024-03-02T12:56:43;5.43;;;4.93;;
50575;SDS011;76633;45.642;12.198;2024-03-02T12:59:18;6.30;;;4.90;;
50575;SDS011;76633;45.642;12.198;2024-03-02T13:01:52;5.20;;;4.22;;
50575;SDS011;76633;45.642;12.198;2024-03-02T13:04:25;5.03;;;3.97;;
50575;SDS011;76633;45.642;12.198;2024-03-02T13:06:53;6.97;;;4.63;;
50575;SDS011;76633;45.642;12.198;2024-03-02T13:09:20;7.47;;;4.93;;
50575;SDS011;76633;45.642;12.198;2024-03-02T13:11:46;7.15;;;4.18;;
50575;SDS011;76633;45.642;12.198;2024-03-02T13:14:12;7.47;;;4.00;;
50575;SDS011;76633;45.642;12.198;2024-03-02T13:16:38;6.03;;;4.15;;
50575;SDS011;76633;45.642;12.198;2024-03-02T13:19:08;5.07;;;4.57;;
50575;SDS011;76633;45.642;12.198;2024-03-02T13:21:35;8.32;;;4.68;;
50575;SDS011;76633;45.642;12.198;2024-03-02T13:24:00;5.32;;;4.47;;
50575;SDS011;76633;45.642;12.198;2024-03-02T13:26:26;6.80;;;4.57;;
50575;SDS011;76633;45.642;12.198;2024-03-02T13:28:52;5.32;;;4.80;;
50575;SDS011;76633;45.642;12.198;2024-03-02T13:31:18;6.57;;;3.75;;
50575;SDS011;76633;45.642;12.198;2024-03-02T13:33:44;6.05;;;3.88;;
50575;SDS011;76633;45.642;12.198;2024-03-02T13:36:09;5.10;;;3.97;;
50575;SDS011;76633;45.642;12.198;2024-03-02T13:38:35;8.05;;;4.55;;
50575;SDS011;76633;45.642;12.198;2024-03-02T13:41:01;9.27;;;5.22;;
50575;SDS011;76633;45.642;12.198;2024-03-02T13:43:27;6.18;;;4.50;;
50575;SDS011;76633;45.642;12.198;2024-03-02T13:45:53;8.95;;;6.65;;
50575;SDS011;76633;45.642;12.198;2024-03-02T13:48:19;12.05;;;8.10;;
50575;SDS011;76633;45.642;12.198;2024-03-02T13:50:45;10.93;;;7.68;;
50575;SDS011;76633;45.642;12.198;2024-03-02T13:53:11;13.73;;;8.75;;
50575;SDS011;76633;45.642;12.198;2024-03-02T13:55:37;8.82;;;5.30;;
50575;SDS011;76633;45.642;12.198;2024-03-02T13:58:03;9.27;;;6.20;;
50575;SDS011;76633;45.642;12.198;2024-03-02T14:00:29;7.20;;;5.18;;
50575;SDS011;76633;45.642;12.198;2024-03-02T14:02:55;7.13;;;5.63;;
50575;SDS011;76633;45.642;12.198;2024-03-02T14:05:21;9.95;;;6.28;;
50575;SDS011;76633;45.642;12.198;2024-03-02T14:07:46;5.47;;;4.60;;
50575;SDS011;76633;45.642;12.198;2024-03-02T14:10:12;7.50;;;6.22;;
50575;SDS011;76633;45.642;12.198;2024-03-02T14:12:40;6.20;;;5.32;;
50575;SDS011;76633;45.642;12.198;2024-03-02T14:15:06;9.93;;;6.05;;
50575;SDS011;76633;45.642;12.198;2024-03-02T14:17:32;11.05;;;6.82;;
50575;SDS011;76633;45.642;12.198;2024-03-02T14:19:58;9.07;;;7.22;;
50575;SDS011;76633;45.642;12.198;2024-03-02T14:22:24;8.77;;;6.40;;
50575;SDS011;76633;45.642;12.198;2024-03-02T14:24:50;10.10;;;6.03;;
50575;SDS011;76633;45.642;12.198;2024-03-02T14:27:16;7.82;;;5.60;;
50575;SDS011;76633;45.642;12.198;2024-03-02T14:29:42;7.38;;;5.55;;
50575;SDS011;76633;45.642;12.198;2024-03-02T14:32:08;8.73;;;6.20;;
50575;SDS011;76633;45.642;12.198;2024-03-02T14:34:34;9.13;;;5.97;;
50575;SDS011;76633;45.642;12.198;2024-03-02T14:37:00;6.18;;;5.30;;